Terminal Aerodrome Forecast
Issued by NWS

Home | Current Version | Previous Version | Text Only | Print | Product List | Glossary On
Versions: 1 2 3 4 5 6 7 8 9 10 11 12 13 14
792
FTUS43 KDVN 251732
TAFBRL
TAF
KBRL 251732Z 2518/2618 24010KT P6SM SCT030 BKN080
      TEMPO 2518/2520 -SHRA BKN040
     FM252000 28012G18KT P6SM SCT025 BKN040
     FM260300 27008KT P6SM SKC
     FM261500 28010G18KT P6SM SCT050=

USA.gov is the U.S. government's official web portal to all federal, state and local government web resources and services.